Pagrindinis puslapis
METAR-TAF:

METAR-TAF

Oro uostai :

Afonsos

Rio de Žaneiras, Rio de Janeiro, Brazilija

platuma: 22-52S, ilguma: 043-22W, Aukštis: 34 m

Dabartinis oras

Ataskaita buvo paskelbta 39 minutes, ne 23:00 UTC
Vėjas 4 kt iš Šiaurės/Šiaurės Vakarų
Temperatūra 31°C
Drėgmė 55%
Slėgis 1008 hPa
Matomumas 10 km arba daugiau
Mažai debesys ne aukštis 2500 ft
Išsisklaidę debesys ne aukštis 6000 ft

METAR: SBAF 192300Z 33004KT 9999 FEW025 SCT060 31/21 Q1008

Laikas: 20:39 (23:39 UTC)

Prognozė

Ataskaita buvo paskelbta 7 valandos ir 39 minutes, ne 16:00 UTC
Prognozė galioja nuo 19 metu 18 UTC su 20 metu 06 UTC
Vėjas 8 kt iš Šiaurės
Matomumas 10 km arba daugiau
Mažai debesys ne aukštis 3500 ft
Tapsmas
nuo 19 metu 18 UTC su 19 metu 20 UTC
Vėjas 8 kt iš Pietryčių
Tapsmas
nuo 19 metu 21 UTC su 19 metu 23 UTC
Vėjas 5 kt iš Rytų/Pietryčių
Matomumas 10 km arba daugiau
nėra debesų žemiau 1500 m ir nėra kamuolinių lietaus debesų

TAF: SBAF 191600Z 1918/2006 35008KT 9999 FEW035 TX38/1918Z TN26/2005Z BECMG 1918/1920 13008KT BECMG 1921/1923 12005KT CAVOK RMK PEJ

Orai ataskaitas ir orų prognozės (METAR, TAF).

turimą stotys yra geltonos ir raudonos taškus žemėlapyje.

Perkelti pele per norėdami pamatyti stoties vardą.

Tada spustelėkite, norėdami matyti oro stebėjimo ir prognozės.

Norėdami pakeisti žemėlapį: spustelėkite ant žalios mygtukų su juodo kryžiaus žemyn,; žalią mygtuką su brūkšneliu, jei norite nutolinti; arba žalių rodyklių gretimoms žemėlapius.


METAR-TAF: